Time;durP1;ratioP1;P1;durP2;ratioP2;P2;SDS_P1;SDS_P2;PMS_P1;PMS_P2;Temp;Humidity;BMP_temperature;BMP_pressure;BME280_temperature;BME280_humidity;BME280_pressure;Samples;Min_cycle;Max_cycle;Signal;HPM_P1;HPM_P2
2022/11/28 00:02:15;;;;;;;5.00;3.20;;;8.80;96.80;;;;;;5012696;28;20030;-78
2022/11/28 00:04:41;;;;;;;6.18;3.55;;;8.80;96.80;;;;;;5012657;28;20116;-77
2022/11/28 00:07:09;;;;;;;5.70;3.17;;;8.70;96.90;;;;;;5014144;28;20106;-79
2022/11/28 00:09:34;;;;;;;5.88;3.13;;;8.70;97.20;;;;;;5014010;28;20037;-77
2022/11/28 00:12:00;;;;;;;8.07;3.55;;;8.80;97.00;;;;;;5012465;28;20050;-78
2022/11/28 00:14:26;;;;;;;7.13;3.15;;;8.70;97.10;;;;;;5012778;28;20026;-79
2022/11/28 00:16:52;;;;;;;7.68;3.47;;;8.60;97.00;;;;;;5013692;28;20050;-78
2022/11/28 00:19:17;;;;;;;7.80;3.80;;;8.70;97.00;;;;;;5013723;28;20393;-78
2022/11/28 00:21:43;;;;;;;8.38;3.65;;;8.70;97.00;;;;;;5014145;28;20110;-77
2022/11/28 00:24:09;;;;;;;10.93;3.33;;;8.70;96.90;;;;;;5013530;28;20121;-78
2022/11/28 00:26:39;;;;;;;8.18;4.47;;;8.70;97.10;;;;;;5012790;28;20433;-78
2022/11/28 00:29:06;;;;;;;8.00;3.45;;;8.70;97.20;;;;;;5013680;28;20057;-78
2022/11/28 00:31:34;;;;;;;7.15;3.20;;;8.70;97.50;;;;;;5012339;28;20121;-78
2022/11/28 00:34:01;;;;;;;8.00;2.97;;;8.60;97.40;;;;;;5012792;28;20376;-78
2022/11/28 00:36:28;;;;;;;4.93;3.08;;;8.60;97.50;;;;;;5013348;28;20121;-78
2022/11/28 00:38:54;;;;;;;4.87;3.03;;;8.50;97.50;;;;;;5013398;28;20480;-77
2022/11/28 00:41:22;;;;;;;5.75;3.33;;;8.50;97.30;;;;;;5012100;28;20034;-79
2022/11/28 00:43:49;;;;;;;6.80;3.50;;;8.50;97.30;;;;;;5012009;28;20022;-77
2022/11/28 00:46:16;;;;;;;7.97;3.60;;;8.50;97.30;;;;;;5013308;28;20025;-79
2022/11/28 00:48:42;;;;;;;5.90;3.33;;;8.50;97.10;;;;;;5013428;28;20030;-79
2022/11/28 00:51:12;;;;;;;4.85;3.17;;;8.50;96.90;;;;;;5013179;28;20034;-79
2022/11/28 00:53:42;;;;;;;7.68;3.17;;;8.50;96.80;;;;;;5012053;28;20093;-79
2022/11/28 00:56:09;;;;;;;6.50;3.50;;;8.50;97.20;;;;;;5011557;28;20034;-78
2022/11/28 00:58:36;;;;;;;7.97;3.20;;;8.50;97.20;;;;;;5012152;28;20360;-79
2022/11/28 01:01:13;;;;;;;5.68;2.55;;;8.50;97.10;;;;;;5013420;28;20094;-78
2022/11/28 01:03:40;;;;;;;6.90;3.30;;;8.50;96.90;;;;;;5013222;28;20180;-78
2022/11/28 01:06:07;;;;;;;41.47;21.67;;;8.60;96.90;;;;;;5011764;28;20026;-77
2022/11/28 01:08:33;;;;;;;66.65;34.78;;;8.60;96.80;;;;;;5011343;28;20140;-79
2022/11/28 01:10:59;;;;;;;9.48;5.80;;;8.60;96.80;;;;;;5011137;28;20063;-79
2022/11/28 01:13:25;;;;;;;4.95;3.00;;;8.60;96.70;;;;;;5012205;28;20033;-79
2022/11/28 01:15:50;;;;;;;4.55;3.22;;;8.70;96.70;;;;;;5012722;28;20029;-79
2022/11/28 01:18:16;;;;;;;5.30;2.90;;;8.50;96.80;;;;;;5011105;28;20040;-80
2022/11/28 01:20:42;;;;;;;5.85;3.60;;;8.50;97.00;;;;;;5011182;28;20495;-80
2022/11/28 01:23:08;;;;;;;7.00;2.67;;;8.50;96.50;;;;;;5011236;28;20432;-79
2022/11/28 01:25:34;;;;;;;5.72;2.95;;;8.50;96.40;;;;;;5012174;28;20048;-78
2022/11/28 01:28:00;;;;;;;4.82;2.92;;;8.50;96.20;;;;;;5012804;28;20030;-78
2022/11/28 01:30:26;;;;;;;5.82;2.80;;;8.50;95.90;;;;;;5011837;28;20334;-78
2022/11/28 01:32:52;;;;;;;5.20;3.08;;;8.50;95.90;;;;;;5011044;28;20117;-78
2022/11/28 01:35:18;;;;;;;5.20;2.70;;;8.50;95.60;;;;;;5011938;28;20129;-79
2022/11/28 01:37:44;;;;;;;4.93;3.05;;;8.50;95.70;;;;;;5010935;28;20091;-78
2022/11/28 01:40:13;;;;;;;6.90;3.20;;;8.60;95.70;;;;;;5011398;28;20022;-79
2022/11/28 01:42:38;;;;;;;5.93;2.70;;;8.60;95.70;;;;;;5012023;28;20471;-78
2022/11/28 01:45:10;;;;;;;4.97;2.83;;;8.60;95.50;;;;;;5011833;28;20617;-78
2022/11/28 01:47:36;;;;;;;7.75;2.63;;;8.60;95.50;;;;;;5012077;28;20372;-80
2022/11/28 01:50:05;;;;;;;5.10;3.10;;;8.70;95.60;;;;;;5011885;28;20030;-80
2022/11/28 01:52:32;;;;;;;4.20;2.63;;;8.60;95.50;;;;;;5011792;28;26235;-80
2022/11/28 01:55:00;;;;;;;6.35;2.70;;;8.70;95.80;;;;;;5011099;28;20030;-80
2022/11/28 01:57:26;;;;;;;;;;;8.70;95.90;;;;;;5011256;28;20133;-78
2022/11/28 01:59:59;;;;;;;4.72;2.58;;;8.60;95.90;;;;;;5011623;28;20314;-79
2022/11/28 02:02:43;;;;;;;6.70;2.85;;;8.70;96.00;;;;;;5011659;28;20503;-78
2022/11/28 02:05:08;;;;;;;5.13;2.67;;;8.60;96.10;;;;;;5010307;28;20464;-80
2022/11/28 02:07:35;;;;;;;5.57;2.75;;;8.60;96.10;;;;;;5011396;28;20479;-79
2022/11/28 02:10:05;;;;;;;4.65;2.47;;;8.70;96.10;;;;;;5010867;28;20025;-80
2022/11/28 02:12:57;;;;;;;4.95;2.40;;;8.60;96.20;;;;;;5010203;28;20384;-78
2022/11/28 02:15:37;;;;;;;4.45;2.47;;;8.60;96.00;;;;;;5009624;28;20484;-79
2022/11/28 02:18:12;;;;;;;7.15;2.70;;;8.60;95.70;;;;;;5011320;28;20033;-81
2022/11/28 02:20:57;;;;;;;6.47;2.90;;;8.50;95.50;;;;;;5011485;28;20034;-85
2022/11/28 02:23:49;;;;;;;4.43;2.58;;;8.60;95.60;;;;;;5009979;28;20098;-80
2022/11/28 02:26:41;;;;;;;4.75;2.30;;;8.60;95.20;;;;;;5017571;28;20034;-78
2022/11/28 02:29:45;;;;;;;3.78;2.35;;;8.60;95.00;;;;;;5011311;28;20431;-78
2022/11/28 02:32:29;;;;;;;7.18;2.67;;;8.60;95.10;;;;;;5019562;28;20124;-78
2022/11/28 02:35:05;;;;;;;5.32;2.55;;;8.70;94.90;;;;;;5011014;28;20654;-77
2022/11/28 02:37:45;;;;;;;6.07;2.97;;;8.60;94.80;;;;;;5013918;28;20106;-78
2022/11/28 02:40:19;;;;;;;3.90;2.15;;;8.60;94.90;;;;;;5030766;28;20100;-76
2022/11/28 02:42:52;;;;;;;4.32;2.72;;;8.60;94.80;;;;;;5031594;28;20029;-77
2022/11/28 02:45:30;;;;;;;3.45;2.45;;;8.60;94.80;;;;;;5029609;28;20493;-78
2022/11/28 02:48:11;;;;;;;5.03;2.67;;;8.60;94.70;;;;;;5029612;28;20132;-77
2022/11/28 02:51:01;;;;;;;7.03;3.20;;;8.60;94.70;;;;;;5030550;28;20038;-78
2022/11/28 02:53:31;;;;;;;6.20;2.95;;;8.60;94.40;;;;;;5030435;28;20410;-79
2022/11/28 02:55:58;;;;;;;3.88;2.63;;;8.60;94.30;;;;;;5029345;28;20035;-79
2022/11/28 02:58:24;;;;;;;7.50;3.15;;;8.70;94.50;;;;;;5030606;28;20029;-78
2022/11/28 03:00:50;;;;;;;6.82;2.60;;;8.70;94.40;;;;;;5031048;28;20030;-79
2022/11/28 03:03:27;;;;;;;4.22;2.45;;;8.80;94.40;;;;;;5029481;28;20030;-80
2022/11/28 03:06:23;;;;;;;7.90;2.90;;;8.70;94.20;;;;;;5030630;28;20041;-79
2022/11/28 03:09:14;;;;;;;5.75;3.03;;;8.70;94.50;;;;;;5029541;28;20080;-77
2022/11/28 03:11:57;;;;;;;6.13;2.75;;;8.70;94.30;;;;;;5030314;28;20425;-77
2022/11/28 03:14:38;;;;;;;6.53;3.15;;;8.60;94.20;;;;;;5030436;28;20033;-78
2022/11/28 03:17:12;;;;;;;5.25;3.30;;;8.60;94.20;;;;;;5030343;28;20146;-78
2022/11/28 03:20:01;;;;;;;4.70;2.97;;;8.70;94.30;;;;;;5030433;28;20025;-78
2022/11/28 03:22:38;;;;;;;5.05;2.72;;;8.60;94.30;;;;;;5029211;28;20040;-78
2022/11/28 03:25:22;;;;;;;8.10;3.25;;;8.60;94.30;;;;;;5030745;28;20522;-80
2022/11/28 03:27:58;;;;;;;4.18;2.63;;;8.70;94.30;;;;;;5033731;28;20049;-80
2022/11/28 03:30:49;;;;;;;6.55;2.95;;;8.70;94.30;;;;;;5034347;28;20426;-80
2022/11/28 03:33:16;;;;;;;2.88;2.03;;;8.70;94.20;;;;;;5032895;28;20091;-78
2022/11/28 03:35:50;;;;;;;5.43;2.88;;;8.70;94.30;;;;;;5032938;28;20025;-79
2022/11/28 03:38:36;;;;;;;4.00;2.60;;;8.60;94.30;;;;;;5034083;28;20045;-81
2022/11/28 03:41:07;;;;;;;3.78;2.60;;;8.60;94.20;;;;;;5033774;28;20479;-81
2022/11/28 03:43:41;;;;;;;4.75;2.50;;;8.60;94.20;;;;;;5032717;28;20029;-80
2022/11/28 03:46:10;;;;;;;7.53;2.83;;;8.60;94.30;;;;;;5034486;28;20018;-80
2022/11/28 03:48:44;;;;;;;4.30;2.88;;;8.60;94.30;;;;;;5033934;28;20052;-80
2022/11/28 03:51:24;;;;;;;6.68;2.90;;;8.70;94.30;;;;;;5033808;28;20026;-80
2022/11/28 03:54:04;;;;;;;7.85;4.00;;;8.60;94.10;;;;;;5033584;28;20115;-80
2022/11/28 03:56:39;;;;;;;7.82;3.00;;;8.60;94.10;;;;;;5033714;28;20057;-80
2022/11/28 03:59:11;;;;;;;5.35;3.17;;;8.60;94.10;;;;;;5032498;28;20069;-80
2022/11/28 04:01:53;;;;;;;4.75;2.80;;;8.60;94.00;;;;;;5033666;28;20434;-80
2022/11/28 04:04:30;;;;;;;5.03;2.65;;;8.60;93.90;;;;;;5032299;28;20021;-80
2022/11/28 04:07:32;;;;;;;8.13;3.20;;;8.60;93.90;;;;;;5033829;28;20021;-80
2022/11/28 04:10:10;;;;;;;5.30;2.88;;;8.60;93.80;;;;;;5029392;28;20175;-79
2022/11/28 04:12:53;;;;;;;4.30;2.72;;;8.60;93.90;;;;;;5032023;28;20378;-78
2022/11/28 04:15:34;;;;;;;5.18;2.92;;;8.60;93.90;;;;;;5033138;28;20021;-78
2022/11/28 04:18:26;;;;;;;4.97;2.97;;;8.60;94.00;;;;;;5033292;28;20056;-79
2022/11/28 04:20:54;;;;;;;6.63;3.13;;;8.60;93.90;;;;;;5033288;28;20482;-77
2022/11/28 04:23:20;;;;;;;;;;;8.60;94.00;;;;;;5033876;28;20038;-79
2022/11/28 04:25:58;;;;;;;4.80;2.72;;;8.60;94.00;;;;;;5032007;28;19967;-79
2022/11/28 04:28:28;;;;;;;5.07;2.38;;;8.60;93.90;;;;;;5033114;28;20124;-79
2022/11/28 04:30:57;;;;;;;5.15;2.85;;;8.50;93.80;;;;;;5033914;28;20025;-79
2022/11/28 04:33:25;;;;;;;4.78;2.97;;;8.50;94.00;;;;;;5032784;28;20033;-79
2022/11/28 04:35:53;;;;;;;5.05;2.85;;;8.50;93.90;;;;;;5032074;28;20367;-80
2022/11/28 04:38:21;;;;;;;5.65;2.90;;;8.50;94.10;;;;;;5032374;28;20029;-80
2022/11/28 04:40:53;;;;;;;6.25;3.53;;;8.50;93.80;;;;;;5031661;28;20362;-79
2022/11/28 04:43:48;;;;;;;4.68;2.65;;;8.50;93.80;;;;;;5032820;28;20359;-79
2022/11/28 04:46:39;;;;;;;3.70;2.53;;;8.50;93.80;;;;;;5024170;28;20456;-79
2022/11/28 04:49:05;;;;;;;4.97;2.83;;;8.50;93.80;;;;;;5031771;28;20045;-80
2022/11/28 04:51:36;;;;;;;5.50;2.78;;;8.60;93.70;;;;;;5031702;28;20037;-81
2022/11/28 04:54:13;;;;;;;5.35;2.53;;;8.60;93.60;;;;;;5032624;28;20044;-78
2022/11/28 04:56:42;;;;;;;6.65;2.95;;;8.50;93.60;;;;;;5031515;28;20025;-79
2022/11/28 04:59:08;;;;;;;6.55;3.17;;;8.50;93.50;;;;;;5031356;28;20092;-79
2022/11/28 05:01:35;;;;;;;5.60;3.15;;;8.50;93.60;;;;;;5031413;28;20403;-79
2022/11/28 05:04:01;;;;;;;4.53;2.80;;;8.50;93.60;;;;;;5033125;28;20029;-79
2022/11/28 05:06:33;;;;;;;6.15;3.35;;;8.50;93.60;;;;;;5031107;28;20022;-80
2022/11/28 05:08:59;;;;;;;5.13;3.03;;;8.50;93.60;;;;;;5031250;28;20026;-79
2022/11/28 05:11:25;;;;;;;3.70;2.63;;;8.60;93.60;;;;;;5031826;28;20045;-79
2022/11/28 05:13:52;;;;;;;3.95;2.90;;;8.50;93.60;;;;;;5031140;28;20037;-81
2022/11/28 05:16:17;;;;;;;4.05;2.85;;;8.50;93.40;;;;;;5030993;28;20058;-80
2022/11/28 05:18:43;;;;;;;6.65;3.67;;;8.50;93.50;;;;;;5032487;28;20025;-80
2022/11/28 05:21:10;;;;;;;6.55;3.30;;;8.60;93.50;;;;;;5031930;28;20098;-78
2022/11/28 05:23:37;;;;;;;4.72;2.97;;;8.60;93.50;;;;;;5031900;28;20036;-78
2022/11/28 05:26:12;;;;;;;4.05;2.67;;;8.60;93.50;;;;;;5030810;28;20044;-77
2022/11/28 05:28:37;;;;;;;4.30;2.83;;;8.50;93.40;;;;;;5031757;28;20037;-80
2022/11/28 05:31:04;;;;;;;5.72;3.28;;;8.50;93.40;;;;;;5032528;28;20022;-82
2022/11/28 05:33:31;;;;;;;6.50;3.70;;;8.50;93.40;;;;;;5032080;28;20116;-79
2022/11/28 05:36:05;;;;;;;7.72;3.53;;;8.50;93.30;;;;;;5031998;28;20026;-79
2022/11/28 05:38:32;;;;;;;6.00;2.97;;;8.50;93.30;;;;;;5030593;28;20050;-79
2022/11/28 05:40:58;;;;;;;4.65;2.88;;;8.50;93.40;;;;;;5031848;28;20025;-80
2022/11/28 05:43:24;;;;;;;6.18;3.20;;;8.50;93.70;;;;;;5030677;28;20026;-79
2022/11/28 05:45:51;;;;;;;4.80;2.78;;;8.40;93.30;;;;;;5030735;28;20033;-79
2022/11/28 05:48:16;;;;;;;4.72;3.05;;;8.50;93.60;;;;;;5031780;28;20030;-79
2022/11/28 05:50:42;;;;;;;5.25;2.90;;;8.50;93.40;;;;;;5030744;28;20104;-77
2022/11/28 05:53:08;;;;;;;4.60;2.65;;;8.40;93.40;;;;;;5031347;28;20121;-79
2022/11/28 05:55:37;;;;;;;7.10;3.28;;;8.50;93.40;;;;;;5031359;28;20029;-79
2022/11/28 05:58:03;;;;;;;7.32;3.10;;;8.50;93.30;;;;;;5030686;28;20448;-78
2022/11/28 06:00:29;;;;;;;7.70;3.60;;;8.50;93.30;;;;;;5031497;28;20171;-79
2022/11/28 06:02:55;;;;;;;5.50;3.15;;;8.60;93.30;;;;;;5031834;28;20447;-79
2022/11/28 06:05:21;;;;;;;6.10;3.40;;;8.40;93.30;;;;;;5031238;28;20030;-78
2022/11/28 06:07:47;;;;;;;5.75;3.13;;;8.50;93.30;;;;;;5031499;28;20028;-78
2022/11/28 06:10:13;;;;;;;7.47;3.45;;;8.50;93.20;;;;;;5031147;28;20028;-79
2022/11/28 06:12:39;;;;;;;6.03;3.28;;;8.50;93.30;;;;;;5031433;28;20140;-78
2022/11/28 06:15:05;;;;;;;5.90;3.30;;;8.50;93.40;;;;;;5031121;28;20034;-79
2022/11/28 06:17:31;;;;;;;10.23;3.35;;;8.50;93.30;;;;;;5031417;28;20467;-78
2022/11/28 06:19:57;;;;;;;5.38;3.42;;;8.50;93.40;;;;;;5030352;28;20279;-81
2022/11/28 06:22:22;;;;;;;12.40;4.22;;;8.40;93.40;;;;;;5031345;28;20025;-82
2022/11/28 06:24:48;;;;;;;7.05;2.97;;;8.40;93.60;;;;;;5031823;28;20051;-79
2022/11/28 06:27:14;;;;;;;5.25;3.03;;;8.50;93.70;;;;;;5029837;28;20033;-80
2022/11/28 06:29:40;;;;;;;4.55;2.67;;;8.60;93.70;;;;;;5029879;28;20076;-80
2022/11/28 06:32:06;;;;;;;8.82;2.78;;;8.60;93.90;;;;;;5031056;28;20044;-80
2022/11/28 06:34:32;;;;;;;5.82;2.90;;;8.50;94.10;;;;;;5029962;28;20030;-83
2022/11/28 06:36:58;;;;;;;5.05;2.70;;;8.50;94.20;;;;;;5032071;28;20029;-80
2022/11/28 06:39:23;;;;;;;3.58;2.72;;;8.50;94.00;;;;;;5031348;28;20030;-79
2022/11/28 06:41:49;;;;;;;6.97;3.10;;;8.50;93.90;;;;;;5031488;28;20025;-80
2022/11/28 06:44:15;;;;;;;5.65;3.22;;;8.50;94.00;;;;;;5029871;28;20488;-78
2022/11/28 06:46:42;;;;;;;4.10;2.95;;;8.40;94.00;;;;;;5032283;28;20025;-81
2022/11/28 06:49:10;;;;;;;8.07;3.20;;;8.40;93.90;;;;;;5030080;28;20036;-81
2022/11/28 06:51:36;;;;;;;4.55;2.95;;;8.50;93.80;;;;;;5030277;28;20033;-79
2022/11/28 06:54:02;;;;;;;6.47;3.17;;;8.40;93.60;;;;;;5031459;28;20345;-78
2022/11/28 06:56:27;;;;;;;8.50;3.22;;;8.50;93.60;;;;;;5031829;28;20363;-80
2022/11/28 06:58:55;;;;;;;5.63;3.25;;;8.50;93.90;;;;;;5031353;28;20371;-80
2022/11/28 07:01:22;;;;;;;;;;;8.50;93.50;;;;;;5032476;28;20045;-80
2022/11/28 07:03:48;;;;;;;6.47;3.67;;;8.40;93.40;;;;;;5035279;28;19905;-83
2022/11/28 07:06:18;;;;;;;5.03;3.33;;;8.40;93.50;;;;;;5034976;28;20040;-87
2022/11/28 07:08:45;;;;;;;7.53;3.88;;;8.50;93.60;;;;;;5040862;28;20022;-88
2022/11/28 07:11:23;;;;;;;11.70;4.40;;;8.50;93.70;;;;;;5039186;28;20048;-89
2022/11/28 07:13:52;;;;;;;9.70;5.03;;;8.60;93.80;;;;;;5039918;28;20029;-89
2022/11/28 07:16:24;;;;;;;11.00;4.30;;;8.60;93.90;;;;;;5035371;28;20096;-83
2022/11/28 07:18:50;;;;;;;7.15;3.88;;;8.60;94.10;;;;;;5033129;28;20111;-74
2022/11/28 07:21:17;;;;;;;9.63;3.63;;;8.70;94.10;;;;;;5033212;28;20507;-75
2022/11/28 07:23:45;;;;;;;8.03;3.30;;;8.80;94.20;;;;;;5034224;28;20064;-75
2022/11/28 07:26:13;;;;;;;5.78;3.50;;;8.80;94.00;;;;;;5034707;28;20275;-80
2022/11/28 07:28:38;;;;;;;12.80;4.22;;;8.80;94.00;;;;;;5024121;28;20456;-78
2022/11/28 07:31:09;;;;;;;9.55;4.75;;;8.80;94.00;;;;;;5015466;28;20086;-76
2022/11/28 07:33:36;;;;;;;9.75;4.10;;;8.90;94.20;;;;;;5013231;28;20038;-76
2022/11/28 07:36:04;;;;;;;113.75;50.63;;;8.90;94.30;;;;;;5015121;28;20073;-75
2022/11/28 07:38:31;;;;;;;25.10;12.60;;;8.80;94.10;;;;;;5014904;28;20113;-74
2022/11/28 07:41:11;;;;;;;7.95;3.95;;;8.80;94.10;;;;;;5013194;28;20065;-75
2022/11/28 07:43:38;;;;;;;8.88;3.70;;;8.80;94.00;;;;;;5015357;28;20052;-77
2022/11/28 07:46:09;;;;;;;6.60;3.17;;;8.80;94.00;;;;;;5015829;28;20022;-74
2022/11/28 07:48:36;;;;;;;6.50;3.65;;;8.80;94.00;;;;;;5015526;28;20342;-75
2022/11/28 07:51:31;;;;;;;9.65;3.90;;;8.70;93.90;;;;;;5015234;28;20487;-75
2022/11/28 07:53:58;;;;;;;7.40;3.88;;;8.90;94.20;;;;;;5013497;28;20038;-73
2022/11/28 07:56:30;;;;;;;5.38;3.45;;;8.80;94.20;;;;;;5014282;28;20041;-76
2022/11/28 07:58:56;;;;;;;9.80;3.38;;;8.90;94.30;;;;;;5013815;28;20042;-77
2022/11/28 08:01:24;;;;;;;6.43;3.90;;;8.80;94.20;;;;;;5013765;28;20022;-76
2022/11/28 08:03:51;;;;;;;7.80;4.10;;;8.90;94.40;;;;;;5014298;28;20456;-76
2022/11/28 08:06:19;;;;;;;11.18;5.22;;;8.80;94.40;;;;;;5012634;28;20030;-73
2022/11/28 08:08:46;;;;;;;9.07;3.85;;;8.80;94.60;;;;;;5013508;28;20091;-77
2022/11/28 08:11:13;;;;;;;10.60;4.22;;;8.90;94.60;;;;;;5012749;28;20128;-77
2022/11/28 08:13:39;;;;;;;10.63;4.70;;;8.90;94.60;;;;;;5011588;28;20038;-75
2022/11/28 08:16:07;;;;;;;13.55;6.88;;;9.00;94.60;;;;;;5013280;28;20049;-76
2022/11/28 08:18:34;;;;;;;7.30;4.35;;;9.00;94.60;;;;;;5013634;28;20091;-75
2022/11/28 08:21:08;;;;;;;8.07;4.07;;;9.00;94.80;;;;;;5013560;28;20178;-76
2022/11/28 08:23:35;;;;;;;6.40;4.18;;;9.10;94.60;;;;;;5013875;28;20041;-74
2022/11/28 08:26:06;;;;;;;8.73;4.30;;;9.10;94.70;;;;;;5013411;28;20543;-76
2022/11/28 08:28:32;;;;;;;7.25;4.10;;;9.10;94.80;;;;;;5013398;28;20160;-78
2022/11/28 08:31:00;;;;;;;12.52;5.07;;;9.20;95.00;;;;;;5014085;28;20112;-77
2022/11/28 08:33:26;;;;;;;9.55;4.88;;;9.10;95.30;;;;;;5013917;28;20375;-74
2022/11/28 08:35:52;;;;;;;11.00;4.50;;;9.00;95.60;;;;;;5013886;28;20026;-78
2022/11/28 08:38:18;;;;;;;8.52;4.40;;;9.00;95.70;;;;;;5012856;28;20045;-76
2022/11/28 08:40:44;;;;;;;11.93;4.85;;;9.00;95.90;;;;;;5013614;28;20065;-77
2022/11/28 08:43:10;;;;;;;8.80;4.30;;;9.00;95.90;;;;;;5014260;28;20352;-74
2022/11/28 08:45:36;;;;;;;9.98;4.68;;;9.00;95.90;;;;;;5013398;28;20038;-76
2022/11/28 08:48:03;;;;;;;7.93;4.57;;;9.10;95.80;;;;;;5011734;28;20096;-77
2022/11/28 08:50:29;;;;;;;7.05;3.78;;;9.10;95.80;;;;;;5013051;28;20030;-83
2022/11/28 08:52:55;;;;;;;5.30;3.40;;;9.10;95.70;;;;;;5012759;28;20040;-79
2022/11/28 08:55:21;;;;;;;9.90;4.32;;;9.20;95.70;;;;;;5012846;28;20038;-71
2022/11/28 08:57:46;;;;;;;7.18;4.60;;;9.10;95.60;;;;;;5013141;28;20374;-77
2022/11/28 09:00:13;;;;;;;10.55;5.72;;;9.10;96.00;;;;;;5012708;28;20034;-76
2022/11/28 09:02:39;;;;;;;12.60;5.30;;;9.00;95.90;;;;;;5012792;28;20030;-82
2022/11/28 09:05:05;;;;;;;7.97;4.60;;;8.90;95.90;;;;;;5013209;28;20117;-78
2022/11/28 09:07:30;;;;;;;9.18;4.25;;;8.90;95.80;;;;;;5012912;28;20021;-77
2022/11/28 09:09:56;;;;;;;9.52;5.03;;;9.00;95.70;;;;;;5012920;28;20464;-78
2022/11/28 09:12:22;;;;;;;14.80;4.85;;;9.00;95.60;;;;;;5011388;28;20121;-78
2022/11/28 09:14:47;;;;;;;7.32;4.60;;;9.00;95.50;;;;;;5011209;28;20026;-78
2022/11/28 09:17:14;;;;;;;9.77;4.35;;;9.00;95.60;;;;;;5011554;28;20460;-80
2022/11/28 09:19:40;;;;;;;9.88;4.40;;;9.00;95.60;;;;;;5011421;28;20029;-79
2022/11/28 09:22:06;;;;;;;9.43;4.53;;;9.00;95.50;;;;;;5011965;28;20463;-79
2022/11/28 09:24:32;;;;;;;7.95;4.25;;;9.00;95.50;;;;;;5012395;28;20038;-80
2022/11/28 09:26:58;;;;;;;7.63;4.13;;;9.00;95.50;;;;;;5012532;28;20044;-76
2022/11/28 09:29:25;;;;;;;10.07;6.03;;;9.00;95.60;;;;;;5012408;28;20037;-75
2022/11/28 09:31:50;;;;;;;19.40;7.80;;;9.00;95.50;;;;;;5012488;28;20065;-77
2022/11/28 09:34:16;;;;;;;11.38;5.13;;;9.00;95.60;;;;;;5012292;28;20056;-78
2022/11/28 09:36:42;;;;;;;6.65;4.20;;;9.00;95.30;;;;;;5012726;28;20402;-80
2022/11/28 09:39:08;;;;;;;13.10;6.25;;;9.00;95.30;;;;;;5012112;28;20034;-80
2022/11/28 09:42:15;;;;;;;9.52;4.25;;;9.00;95.20;;;;;;5011178;28;20464;-76
2022/11/28 09:44:45;;;;;;;13.05;4.32;;;9.00;95.20;;;;;;5008875;28;20034;-78
2022/11/28 09:47:24;;;;;;;7.38;4.13;;;9.00;95.10;;;;;;5011389;28;20053;-79
2022/11/28 09:50:15;;;;;;;6.25;3.72;;;9.00;95.00;;;;;;5012100;28;20026;-82
2022/11/28 09:53:00;;;;;;;13.25;4.82;;;9.00;95.10;;;;;;5007089;28;20033;-81
2022/11/28 09:55:42;;;;;;;10.15;4.78;;;9.00;95.10;;;;;;5012789;28;20337;-82
2022/11/28 09:58:35;;;;;;;9.40;4.50;;;9.10;95.00;;;;;;5011350;28;20105;-80
2022/11/28 10:01:25;;;;;;;8.95;4.65;;;9.20;94.90;;;;;;5010694;28;20421;-79
2022/11/28 10:04:14;;;;;;;6.13;4.05;;;9.20;94.80;;;;;;5010920;28;20056;-78
2022/11/28 10:06:49;;;;;;;10.52;4.40;;;9.20;94.90;;;;;;5010276;28;20368;-77
2022/11/28 10:09:43;;;;;;;9.63;4.20;;;9.30;95.10;;;;;;5011854;28;20187;-80
2022/11/28 10:12:23;;;;;;;11.10;4.80;;;9.30;95.10;;;;;;5011559;28;20050;-79
2022/11/28 10:15:06;;;;;;;8.63;4.80;;;9.30;95.10;;;;;;5011703;28;20029;-76
2022/11/28 10:18:02;;;;;;;10.35;4.30;;;9.40;95.10;;;;;;5011822;28;20343;-79
2022/11/28 10:20:37;;;;;;;7.13;4.10;;;9.50;95.20;;;;;;5012775;28;20026;-80
2022/11/28 10:23:10;;;;;;;7.95;4.10;;;9.60;95.10;;;;;;5012321;28;20041;-77
2022/11/28 10:25:48;;;;;;;9.70;4.38;;;9.60;95.10;;;;;;5011407;28;20041;-78
2022/11/28 10:28:31;;;;;;;7.90;4.07;;;9.60;95.20;;;;;;5011825;28;20122;-77
2022/11/28 10:31:21;;;;;;;7.45;4.10;;;9.60;95.30;;;;;;5011759;28;20372;-79
2022/11/28 10:34:15;;;;;;;8.32;3.97;;;9.70;95.30;;;;;;5007246;28;20062;-77
2022/11/28 10:36:56;;;;;;;7.00;4.30;;;9.70;95.30;;;;;;5011037;28;20042;-76
2022/11/28 10:39:24;;;;;;;9.52;4.53;;;9.70;95.40;;;;;;5010375;28;20514;-77
2022/11/28 10:42:20;;;;;;;7.70;4.95;;;9.80;95.40;;;;;;5011370;28;20095;-83
2022/11/28 10:45:01;;;;;;;7.22;4.35;;;9.70;95.40;;;;;;5017082;28;20499;-76
2022/11/28 10:47:32;;;;;;;9.68;5.05;;;9.70;95.60;;;;;;5011282;28;20065;-77
2022/11/28 10:50:23;;;;;;;10.68;5.10;;;9.70;95.70;;;;;;5010579;28;20077;-84
2022/11/28 10:53:00;;;;;;;7.70;4.82;;;9.70;95.70;;;;;;5011025;28;20372;-78
2022/11/28 10:55:53;;;;;;;12.07;5.10;;;9.80;95.80;;;;;;5011789;28;20101;-78
2022/11/28 10:58:43;;;;;;;6.88;4.53;;;9.80;95.80;;;;;;5009978;28;20029;-76
2022/11/28 11:01:10;;;;;;;6.97;4.55;;;9.90;95.50;;;;;;5011344;28;20117;-74
2022/11/28 11:03:37;;;;;;;10.05;4.95;;;9.90;95.60;;;;;;5011512;28;20036;-78
2022/11/28 11:06:03;;;;;;;10.35;4.75;;;9.90;95.70;;;;;;5011132;28;20522;-76
2022/11/28 11:08:34;;;;;;;8.13;4.68;;;9.70;95.40;;;;;;5010649;28;20061;-75
2022/11/28 11:11:33;;;;;;;11.60;4.80;;;9.80;95.70;;;;;;5010685;28;20057;-76
2022/11/28 11:14:07;;;;;;;11.82;5.30;;;9.90;95.60;;;;;;5010797;28;20359;-80
2022/11/28 11:16:55;;;;;;;9.25;5.35;;;10.00;95.10;;;;;;5011050;28;20030;-80
2022/11/28 11:19:33;;;;;;;;;;;9.90;95.60;;;;;;5010542;28;20026;-85
2022/11/28 11:22:01;;;;;;;11.85;6.05;;;9.90;95.70;;;;;;5011734;28;20021;-81
2022/11/28 11:24:27;;;;;;;11.52;5.35;;;9.90;95.70;;;;;;5011617;28;20030;-83
2022/11/28 11:26:53;;;;;;;9.63;4.93;;;10.00;95.10;;;;;;5011065;28;20040;-79
2022/11/28 11:29:20;;;;;;;11.23;5.38;;;10.10;95.10;;;;;;5009615;28;20480;-78
2022/11/28 11:31:51;;;;;;;10.95;5.10;;;10.10;95.00;;;;;;5009748;28;20026;-79
2022/11/28 11:34:18;;;;;;;9.68;4.72;;;10.10;94.80;;;;;;5010579;28;20441;-78
2022/11/28 11:36:45;;;;;;;13.07;5.18;;;10.20;94.90;;;;;;5010297;28;20459;-76
2022/11/28 11:39:11;;;;;;;11.73;5.30;;;10.10;95.00;;;;;;5010735;28;20103;-79
2022/11/28 11:41:39;;;;;;;10.20;5.30;;;10.10;94.80;;;;;;5009620;28;20408;-76
2022/11/28 11:44:13;;;;;;;9.57;4.82;;;10.10;94.90;;;;;;5010541;28;20475;-78
2022/11/28 11:46:52;;;;;;;11.88;6.07;;;10.10;94.80;;;;;;5010717;28;20471;-80
2022/11/28 11:49:27;;;;;;;8.48;4.95;;;10.10;94.60;;;;;;5012136;28;20022;-77
2022/11/28 11:51:58;;;;;;;13.77;5.03;;;10.10;94.40;;;;;;5015143;28;20121;-78
2022/11/28 11:54:23;;;;;;;11.82;4.75;;;10.10;93.90;;;;;;5013955;28;20088;-80
2022/11/28 11:56:49;;;;;;;8.60;4.90;;;10.10;93.80;;;;;;5014237;28;20030;-81
2022/11/28 11:59:25;;;;;;;9.10;4.63;;;10.10;93.60;;;;;;5012991;28;20049;-78
2022/11/28 12:01:59;;;;;;;9.15;4.32;;;10.10;93.40;;;;;;5012827;28;20033;-80
2022/11/28 12:04:50;;;;;;;9.35;4.65;;;10.10;93.20;;;;;;5013697;28;20463;-78
2022/11/28 12:07:26;;;;;;;9.20;4.90;;;10.10;93.40;;;;;;5013650;28;20412;-75
2022/11/28 12:09:54;;;;;;;15.38;5.28;;;10.10;93.30;;;;;;5014007;28;20050;-75
2022/11/28 12:12:28;;;;;;;8.35;4.70;;;10.10;93.20;;;;;;5013261;28;20046;-75
2022/11/28 12:14:54;;;;;;;10.02;4.72;;;10.00;93.20;;;;;;5013637;28;20040;-75
2022/11/28 12:17:59;;;;;;;7.85;4.45;;;10.00;93.20;;;;;;5013495;28;20022;-77
2022/11/28 12:20:54;;;;;;;8.30;4.82;;;10.00;93.00;;;;;;5013574;28;20388;-79
2022/11/28 12:23:23;;;;;;;10.75;5.07;;;10.00;92.80;;;;;;5010572;28;20041;-76
2022/11/28 12:26:23;;;;;;;7.38;4.18;;;9.90;93.60;;;;;;5013535;28;20044;-76
2022/11/28 12:29:11;;;;;;;11.90;5.13;;;10.00;93.10;;;;;;5013115;28;20026;-76
2022/11/28 12:31:50;;;;;;;10.63;5.18;;;10.10;93.20;;;;;;5013263;28;20033;-76
2022/11/28 12:34:31;;;;;;;11.57;6.95;;;10.00;93.80;;;;;;5012904;28;20113;-76
2022/11/28 12:37:27;;;;;;;11.05;5.43;;;10.10;94.30;;;;;;5012280;28;20018;-76
2022/11/28 12:40:25;;;;;;;10.57;5.35;;;10.20;94.30;;;;;;5013233;28;20033;-74
2022/11/28 12:43:15;;;;;;;11.77;6.68;;;10.20;94.50;;;;;;5012344;28;20062;-75
2022/11/28 12:45:46;;;;;;;12.35;6.80;;;10.30;94.60;;;;;;5012824;28;20122;-75
2022/11/28 12:48:33;;;;;;;19.83;9.27;;;10.40;94.50;;;;;;5012799;28;20045;-75
2022/11/28 12:51:19;;;;;;;11.85;6.05;;;10.30;94.30;;;;;;5012797;28;20088;-75
2022/11/28 12:54:06;;;;;;;12.88;7.30;;;10.30;94.30;;;;;;5012513;28;20061;-74
2022/11/28 12:56:44;;;;;;;17.27;8.88;;;10.30;94.40;;;;;;5012457;28;20034;-75
2022/11/28 13:00:08;;;;;;;13.10;6.03;;;10.30;94.40;;;;;;5012058;28;20106;-75
2022/11/28 13:02:52;;;;;;;14.43;5.78;;;10.30;94.60;;;;;;4990620;28;20087;-73
2022/11/28 13:05:17;;;;;;;11.77;5.15;;;10.20;94.30;;;;;;5012184;28;20030;-74
2022/11/28 13:08:01;;;;;;;10.68;5.57;;;10.40;94.70;;;;;;5012776;28;20085;-74
2022/11/28 13:10:41;;;;;;;11.52;5.90;;;10.40;94.80;;;;;;5012007;28;20157;-74
2022/11/28 13:13:17;;;;;;;9.70;6.03;;;10.40;95.00;;;;;;5012727;28;20051;-76
2022/11/28 13:16:04;;;;;;;11.48;6.35;;;10.40;95.10;;;;;;5012861;28;20066;-77
2022/11/28 13:18:42;;;;;;;12.70;6.47;;;10.40;95.00;;;;;;5012337;28;20026;-77
2022/11/28 13:21:41;;;;;;;17.20;7.88;;;10.40;95.00;;;;;;5012585;28;20084;-76
2022/11/28 13:24:16;;;;;;;18.95;9.15;;;10.40;95.00;;;;;;5012314;28;20042;-79
2022/11/28 13:27:23;;;;;;;12.93;6.50;;;10.40;95.10;;;;;;5012175;28;20034;-78